sensor_id;sensor_type;location;lat;lon;timestamp;pressure;altitude;pressure_sealevel;temperature;humidity
73316;BME280;61545;53.726;-0.444;2023-05-25T00:03:08;1024.9;;;12.9;100.0
73316;BME280;61545;53.726;-0.444;2023-05-25T00:08:08;1025.0;;;12.8;100.0
73316;BME280;61545;53.726;-0.444;2023-05-25T00:13:08;1025.0;;;12.7;100.0
73316;BME280;61545;53.726;-0.444;2023-05-25T00:18:11;1025.1;;;12.5;100.0
73316;BME280;61545;53.726;-0.444;2023-05-25T00:23:10;1025.1;;;12.5;100.0
73316;BME280;61545;53.726;-0.444;2023-05-25T00:28:11;1025.2;;;12.7;100.0
73316;BME280;61545;53.726;-0.444;2023-05-25T00:33:21;1025.2;;;12.5;100.0
73316;BME280;61545;53.726;-0.444;2023-05-25T00:38:14;1025.2;;;12.5;100.0
73316;BME280;61545;53.726;-0.444;2023-05-25T00:43:08;1025.2;;;12.4;100.0
73316;BME280;61545;53.726;-0.444;2023-05-25T00:48:11;1025.4;;;12.5;100.0
73316;BME280;61545;53.726;-0.444;2023-05-25T00:53:14;1025.3;;;12.3;100.0
73316;BME280;61545;53.726;-0.444;2023-05-25T00:58:08;1025.3;;;12.4;100.0
73316;BME280;61545;53.726;-0.444;2023-05-25T01:03:12;1025.3;;;12.3;100.0
73316;BME280;61545;53.726;-0.444;2023-05-25T01:08:08;1025.3;;;12.0;100.0
73316;BME280;61545;53.726;-0.444;2023-05-25T01:13:08;1025.3;;;12.1;100.0
73316;BME280;61545;53.726;-0.444;2023-05-25T01:18:08;1025.4;;;11.8;100.0
73316;BME280;61545;53.726;-0.444;2023-05-25T01:23:11;1025.4;;;11.9;100.0
73316;BME280;61545;53.726;-0.444;2023-05-25T01:28:16;1025.4;;;11.8;100.0
73316;BME280;61545;53.726;-0.444;2023-05-25T01:33:11;1025.4;;;12.1;100.0
73316;BME280;61545;53.726;-0.444;2023-05-25T01:48:12;1025.4;;;11.8;100.0
73316;BME280;61545;53.726;-0.444;2023-05-25T01:58:08;1025.4;;;11.9;100.0
73316;BME280;61545;53.726;-0.444;2023-05-25T02:03:08;1025.4;;;11.8;100.0
73316;BME280;61545;53.726;-0.444;2023-05-25T02:08:11;1025.4;;;11.5;100.0
73316;BME280;61545;53.726;-0.444;2023-05-25T02:13:08;1025.4;;;11.5;100.0
73316;BME280;61545;53.726;-0.444;2023-05-25T02:18:08;1025.5;;;11.7;100.0
73316;BME280;61545;53.726;-0.444;2023-05-25T02:23:11;1025.5;;;11.7;100.0
73316;BME280;61545;53.726;-0.444;2023-05-25T02:28:11;1025.5;;;11.6;100.0
73316;BME280;61545;53.726;-0.444;2023-05-25T02:33:08;1025.5;;;11.5;100.0
73316;BME280;61545;53.726;-0.444;2023-05-25T02:38:10;1025.5;;;11.7;100.0
73316;BME280;61545;53.726;-0.444;2023-05-25T02:43:08;1025.5;;;11.6;100.0
73316;BME280;61545;53.726;-0.444;2023-05-25T02:48:11;1025.5;;;11.6;100.0
73316;BME280;61545;53.726;-0.444;2023-05-25T02:53:10;1025.5;;;11.8;100.0
73316;BME280;61545;53.726;-0.444;2023-05-25T02:58:08;1025.5;;;11.4;100.0
73316;BME280;61545;53.726;-0.444;2023-05-25T03:03:14;1025.5;;;11.4;100.0
73316;BME280;61545;53.726;-0.444;2023-05-25T03:08:08;1025.5;;;11.4;100.0
73316;BME280;61545;53.726;-0.444;2023-05-25T03:13:15;1025.6;;;11.3;100.0
73316;BME280;61545;53.726;-0.444;2023-05-25T03:18:11;1025.6;;;11.5;100.0
73316;BME280;61545;53.726;-0.444;2023-05-25T03:23:11;1025.6;;;11.2;100.0
73316;BME280;61545;53.726;-0.444;2023-05-25T03:28:12;1025.6;;;11.2;100.0
73316;BME280;61545;53.726;-0.444;2023-05-25T03:33:13;1025.6;;;11.2;100.0
73316;BME280;61545;53.726;-0.444;2023-05-25T03:38:08;1025.5;;;11.2;100.0
73316;BME280;61545;53.726;-0.444;2023-05-25T03:43:11;1025.6;;;11.2;100.0
73316;BME280;61545;53.726;-0.444;2023-05-25T03:53:08;1025.6;;;11.2;100.0
73316;BME280;61545;53.726;-0.444;2023-05-25T03:58:11;1025.6;;;11.2;100.0
73316;BME280;61545;53.726;-0.444;2023-05-25T04:03:21;1025.6;;;11.2;100.0
73316;BME280;61545;53.726;-0.444;2023-05-25T04:08:12;1025.7;;;11.2;100.0
73316;BME280;61545;53.726;-0.444;2023-05-25T04:18:11;1025.8;;;11.2;100.0
73316;BME280;61545;53.726;-0.444;2023-05-25T04:23:08;1025.9;;;11.0;100.0
73316;BME280;61545;53.726;-0.444;2023-05-25T04:33:08;1025.8;;;11.4;100.0
73316;BME280;61545;53.726;-0.444;2023-05-25T04:38:08;1025.9;;;11.5;100.0
73316;BME280;61545;53.726;-0.444;2023-05-25T04:43:08;1025.9;;;11.8;100.0
73316;BME280;61545;53.726;-0.444;2023-05-25T04:48:11;1026.0;;;11.7;100.0
73316;BME280;61545;53.726;-0.444;2023-05-25T04:53:08;1026.1;;;12.0;100.0
73316;BME280;61545;53.726;-0.444;2023-05-25T05:03:08;1026.3;;;12.4;100.0
73316;BME280;61545;53.726;-0.444;2023-05-25T05:08:11;1026.4;;;12.5;100.0
73316;BME280;61545;53.726;-0.444;2023-05-25T05:13:10;1026.5;;;12.4;100.0
73316;BME280;61545;53.726;-0.444;2023-05-25T05:23:12;1026.6;;;12.3;100.0
73316;BME280;61545;53.726;-0.444;2023-05-25T05:28:08;1026.6;;;12.3;100.0
73316;BME280;61545;53.726;-0.444;2023-05-25T05:33:08;1026.6;;;12.4;100.0
73316;BME280;61545;53.726;-0.444;2023-05-25T05:38:08;1026.7;;;12.3;100.0
73316;BME280;61545;53.726;-0.444;2023-05-25T05:43:09;1026.6;;;12.7;100.0
73316;BME280;61545;53.726;-0.444;2023-05-25T05:53:11;1026.7;;;13.7;100.0
73316;BME280;61545;53.726;-0.444;2023-05-25T05:58:11;1026.7;;;14.0;100.0
73316;BME280;61545;53.726;-0.444;2023-05-25T06:03:10;1026.8;;;14.7;100.0
73316;BME280;61545;53.726;-0.444;2023-05-25T06:08:14;1026.8;;;14.8;100.0
73316;BME280;61545;53.726;-0.444;2023-05-25T06:13:11;1026.9;;;15.6;100.0
73316;BME280;61545;53.726;-0.444;2023-05-25T06:18:11;1026.9;;;15.6;100.0
73316;BME280;61545;53.726;-0.444;2023-05-25T06:23:11;1026.8;;;16.1;100.0
73316;BME280;61545;53.726;-0.444;2023-05-25T06:28:11;1026.8;;;16.3;100.0
73316;BME280;61545;53.726;-0.444;2023-05-25T06:33:22;1026.9;;;16.2;100.0
73316;BME280;61545;53.726;-0.444;2023-05-25T06:38:26;1026.9;;;16.7;100.0
73316;BME280;61545;53.726;-0.444;2023-05-25T06:43:11;1026.9;;;17.2;100.0
73316;BME280;61545;53.726;-0.444;2023-05-25T06:48:13;1026.9;;;16.9;100.0
73316;BME280;61545;53.726;-0.444;2023-05-25T06:53:08;1027.0;;;17.2;100.0
73316;BME280;61545;53.726;-0.444;2023-05-25T06:58:08;1027.0;;;16.8;100.0
73316;BME280;61545;53.726;-0.444;2023-05-25T07:08:10;1027.0;;;16.5;100.0
73316;BME280;61545;53.726;-0.444;2023-05-25T07:13:11;1027.0;;;16.8;100.0
73316;BME280;61545;53.726;-0.444;2023-05-25T07:18:13;1027.1;;;17.5;100.0
73316;BME280;61545;53.726;-0.444;2023-05-25T07:23:11;1027.1;;;15.6;100.0
73316;BME280;61545;53.726;-0.444;2023-05-25T07:33:14;1027.2;;;18.4;100.0
73316;BME280;61545;53.726;-0.444;2023-05-25T07:38:08;1027.2;;;18.0;100.0
73316;BME280;61545;53.726;-0.444;2023-05-25T07:48:11;1027.2;;;18.9;100.0
73316;BME280;61545;53.726;-0.444;2023-05-25T07:53:08;1027.2;;;18.0;100.0
73316;BME280;61545;53.726;-0.444;2023-05-25T07:58:08;1027.2;;;17.6;100.0
73316;BME280;61545;53.726;-0.444;2023-05-25T08:03:11;1027.3;;;17.4;100.0
73316;BME280;61545;53.726;-0.444;2023-05-25T08:13:08;1027.2;;;18.7;100.0
73316;BME280;61545;53.726;-0.444;2023-05-25T08:18:11;1027.3;;;19.0;100.0
73316;BME280;61545;53.726;-0.444;2023-05-25T08:23:15;1027.3;;;18.9;100.0
73316;BME280;61545;53.726;-0.444;2023-05-25T08:28:11;1027.4;;;18.4;100.0
73316;BME280;61545;53.726;-0.444;2023-05-25T08:33:11;1027.4;;;18.8;100.0
73316;BME280;61545;53.726;-0.444;2023-05-25T08:38:12;1027.4;;;18.8;100.0
73316;BME280;61545;53.726;-0.444;2023-05-25T08:43:11;1027.5;;;17.7;100.0
73316;BME280;61545;53.726;-0.444;2023-05-25T08:48:12;1027.4;;;18.0;100.0
73316;BME280;61545;53.726;-0.444;2023-05-25T08:53:11;1027.6;;;18.5;100.0
73316;BME280;61545;53.726;-0.444;2023-05-25T09:03:10;1027.6;;;18.7;100.0
73316;BME280;61545;53.726;-0.444;2023-05-25T09:08:14;1027.7;;;18.9;100.0
73316;BME280;61545;53.726;-0.444;2023-05-25T09:13:10;1027.7;;;18.4;100.0
73316;BME280;61545;53.726;-0.444;2023-05-25T09:18:13;1027.7;;;17.6;100.0
73316;BME280;61545;53.726;-0.444;2023-05-25T09:23:10;1027.7;;;19.0;100.0
73316;BME280;61545;53.726;-0.444;2023-05-25T09:28:08;1027.7;;;18.4;100.0
73316;BME280;61545;53.726;-0.444;2023-05-25T09:33:09;1027.8;;;18.7;100.0
73316;BME280;61545;53.726;-0.444;2023-05-25T09:38:12;1027.8;;;18.1;100.0
73316;BME280;61545;53.726;-0.444;2023-05-25T09:43:11;1027.8;;;17.7;100.0
73316;BME280;61545;53.726;-0.444;2023-05-25T09:48:08;1027.9;;;17.3;100.0
73316;BME280;61545;53.726;-0.444;2023-05-25T09:53:08;1027.9;;;17.7;100.0
73316;BME280;61545;53.726;-0.444;2023-05-25T09:58:13;1027.9;;;17.8;100.0
73316;BME280;61545;53.726;-0.444;2023-05-25T10:03:08;1027.9;;;18.0;100.0
73316;BME280;61545;53.726;-0.444;2023-05-25T10:08:11;1028.0;;;18.4;100.0
73316;BME280;61545;53.726;-0.444;2023-05-25T10:18:16;1028.0;;;18.9;100.0
73316;BME280;61545;53.726;-0.444;2023-05-25T10:23:12;1028.0;;;17.5;100.0
73316;BME280;61545;53.726;-0.444;2023-05-25T10:28:16;1028.0;;;18.5;100.0
73316;BME280;61545;53.726;-0.444;2023-05-25T10:33:11;1028.0;;;18.4;100.0
73316;BME280;61545;53.726;-0.444;2023-05-25T10:38:09;1028.0;;;18.7;100.0
73316;BME280;61545;53.726;-0.444;2023-05-25T10:43:14;1028.1;;;18.4;100.0
73316;BME280;61545;53.726;-0.444;2023-05-25T10:48:08;1028.0;;;18.5;100.0
73316;BME280;61545;53.726;-0.444;2023-05-25T10:53:11;1028.0;;;18.3;100.0
73316;BME280;61545;53.726;-0.444;2023-05-25T10:58:12;1028.0;;;17.9;100.0
73316;BME280;61545;53.726;-0.444;2023-05-25T11:03:11;1028.0;;;17.6;100.0
73316;BME280;61545;53.726;-0.444;2023-05-25T11:08:09;1028.1;;;16.9;100.0
73316;BME280;61545;53.726;-0.444;2023-05-25T11:13:42;1028.1;;;17.7;100.0
73316;BME280;61545;53.726;-0.444;2023-05-25T11:18:13;1028.0;;;17.7;100.0
73316;BME280;61545;53.726;-0.444;2023-05-25T11:23:28;1028.0;;;17.7;100.0
73316;BME280;61545;53.726;-0.444;2023-05-25T11:28:08;1028.0;;;17.7;100.0
73316;BME280;61545;53.726;-0.444;2023-05-25T11:33:08;1028.0;;;17.7;100.0
73316;BME280;61545;53.726;-0.444;2023-05-25T11:38:10;1028.0;;;17.4;100.0
73316;BME280;61545;53.726;-0.444;2023-05-25T11:43:08;1028.0;;;17.6;100.0
73316;BME280;61545;53.726;-0.444;2023-05-25T11:48:16;1027.9;;;17.5;100.0
73316;BME280;61545;53.726;-0.444;2023-05-25T11:53:11;1028.1;;;17.7;100.0
73316;BME280;61545;53.726;-0.444;2023-05-25T11:58:14;1028.0;;;17.6;100.0
73316;BME280;61545;53.726;-0.444;2023-05-25T12:03:08;1028.1;;;17.6;100.0
73316;BME280;61545;53.726;-0.444;2023-05-25T12:08:12;1028.0;;;17.5;100.0
73316;BME280;61545;53.726;-0.444;2023-05-25T12:13:11;1027.9;;;17.4;100.0
73316;BME280;61545;53.726;-0.444;2023-05-25T12:18:11;1028.0;;;17.7;100.0
73316;BME280;61545;53.726;-0.444;2023-05-25T12:23:08;1028.0;;;17.5;100.0
73316;BME280;61545;53.726;-0.444;2023-05-25T12:28:14;1027.9;;;17.5;100.0
73316;BME280;61545;53.726;-0.444;2023-05-25T12:33:14;1028.0;;;17.3;100.0
73316;BME280;61545;53.726;-0.444;2023-05-25T12:38:11;1028.0;;;17.2;100.0
73316;BME280;61545;53.726;-0.444;2023-05-25T12:43:11;1028.0;;;17.4;100.0
73316;BME280;61545;53.726;-0.444;2023-05-25T12:48:13;1028.0;;;17.4;100.0
73316;BME280;61545;53.726;-0.444;2023-05-25T12:53:13;1027.9;;;17.4;100.0
73316;BME280;61545;53.726;-0.444;2023-05-25T12:58:09;1027.8;;;17.0;100.0
73316;BME280;61545;53.726;-0.444;2023-05-25T13:03:11;1027.9;;;17.2;100.0
73316;BME280;61545;53.726;-0.444;2023-05-25T13:08:08;1027.9;;;17.4;100.0
73316;BME280;61545;53.726;-0.444;2023-05-25T13:13:10;1027.8;;;17.5;100.0
73316;BME280;61545;53.726;-0.444;2023-05-25T13:23:14;1027.7;;;17.2;100.0
73316;BME280;61545;53.726;-0.444;2023-05-25T13:28:08;1027.8;;;17.4;100.0
73316;BME280;61545;53.726;-0.444;2023-05-25T13:38:11;1027.8;;;17.5;100.0
73316;BME280;61545;53.726;-0.444;2023-05-25T13:43:11;1027.8;;;17.4;100.0
73316;BME280;61545;53.726;-0.444;2023-05-25T13:48:08;1027.8;;;17.2;100.0
73316;BME280;61545;53.726;-0.444;2023-05-25T13:53:11;1027.8;;;17.4;100.0
73316;BME280;61545;53.726;-0.444;2023-05-25T13:58:11;1027.8;;;17.5;100.0
73316;BME280;61545;53.726;-0.444;2023-05-25T14:03:11;1027.8;;;17.3;100.0
73316;BME280;61545;53.726;-0.444;2023-05-25T14:08:11;1027.7;;;17.4;100.0
73316;BME280;61545;53.726;-0.444;2023-05-25T14:18:15;1027.7;;;17.3;100.0
73316;BME280;61545;53.726;-0.444;2023-05-25T14:23:08;1027.6;;;17.4;100.0
73316;BME280;61545;53.726;-0.444;2023-05-25T14:28:14;1027.5;;;17.4;100.0
73316;BME280;61545;53.726;-0.444;2023-05-25T14:33:10;1027.5;;;17.3;100.0
73316;BME280;61545;53.726;-0.444;2023-05-25T14:38:11;1027.5;;;17.4;100.0
73316;BME280;61545;53.726;-0.444;2023-05-25T14:43:11;1027.5;;;17.4;100.0
73316;BME280;61545;53.726;-0.444;2023-05-25T14:48:08;1027.5;;;16.9;100.0
73316;BME280;61545;53.726;-0.444;2023-05-25T14:53:11;1027.4;;;17.2;100.0
73316;BME280;61545;53.726;-0.444;2023-05-25T14:58:09;1027.4;;;17.4;100.0
73316;BME280;61545;53.726;-0.444;2023-05-25T15:03:10;1027.4;;;17.5;100.0
73316;BME280;61545;53.726;-0.444;2023-05-25T15:08:08;1027.4;;;17.5;100.0
73316;BME280;61545;53.726;-0.444;2023-05-25T15:13:11;1027.3;;;17.5;100.0
73316;BME280;61545;53.726;-0.444;2023-05-25T15:18:11;1027.2;;;17.5;100.0
73316;BME280;61545;53.726;-0.444;2023-05-25T15:23:10;1027.3;;;17.1;100.0
73316;BME280;61545;53.726;-0.444;2023-05-25T15:28:12;1027.4;;;16.8;100.0
73316;BME280;61545;53.726;-0.444;2023-05-25T15:33:08;1027.5;;;16.8;100.0
73316;BME280;61545;53.726;-0.444;2023-05-25T15:38:08;1027.6;;;16.6;100.0
73316;BME280;61545;53.726;-0.444;2023-05-25T15:43:08;1027.7;;;16.4;100.0
73316;BME280;61545;53.726;-0.444;2023-05-25T15:48:11;1027.6;;;16.3;100.0
73316;BME280;61545;53.726;-0.444;2023-05-25T15:53:10;1027.6;;;16.2;100.0
73316;BME280;61545;53.726;-0.444;2023-05-25T15:58:11;1027.6;;;16.0;100.0
73316;BME280;61545;53.726;-0.444;2023-05-25T16:03:11;1027.6;;;16.0;100.0
73316;BME280;61545;53.726;-0.444;2023-05-25T16:08:08;1027.7;;;16.0;100.0
73316;BME280;61545;53.726;-0.444;2023-05-25T16:13:11;1027.6;;;15.8;100.0
73316;BME280;61545;53.726;-0.444;2023-05-25T16:18:09;1027.7;;;15.8;100.0
73316;BME280;61545;53.726;-0.444;2023-05-25T16:23:08;1027.8;;;15.9;100.0
73316;BME280;61545;53.726;-0.444;2023-05-25T16:28:11;1027.8;;;15.5;100.0
73316;BME280;61545;53.726;-0.444;2023-05-25T16:33:11;1027.7;;;15.5;100.0
73316;BME280;61545;53.726;-0.444;2023-05-25T16:38:11;1027.7;;;15.4;100.0
73316;BME280;61545;53.726;-0.444;2023-05-25T16:48:13;1027.8;;;15.2;100.0
73316;BME280;61545;53.726;-0.444;2023-05-25T16:53:11;1027.8;;;15.4;100.0
73316;BME280;61545;53.726;-0.444;2023-05-25T16:58:11;1027.8;;;15.3;100.0
73316;BME280;61545;53.726;-0.444;2023-05-25T17:03:08;1027.8;;;15.3;100.0
73316;BME280;61545;53.726;-0.444;2023-05-25T17:08:11;1027.8;;;15.1;100.0
73316;BME280;61545;53.726;-0.444;2023-05-25T17:18:13;1027.8;;;14.9;100.0
73316;BME280;61545;53.726;-0.444;2023-05-25T17:23:11;1027.8;;;15.0;100.0
73316;BME280;61545;53.726;-0.444;2023-05-25T17:28:16;1027.9;;;14.9;100.0
73316;BME280;61545;53.726;-0.444;2023-05-25T17:33:08;1027.8;;;14.8;100.0
73316;BME280;61545;53.726;-0.444;2023-05-25T17:38:08;1027.8;;;14.6;100.0
73316;BME280;61545;53.726;-0.444;2023-05-25T17:43:13;1027.8;;;14.5;100.0
73316;BME280;61545;53.726;-0.444;2023-05-25T17:48:13;1027.8;;;14.5;100.0
73316;BME280;61545;53.726;-0.444;2023-05-25T17:53:08;1027.9;;;14.5;100.0
73316;BME280;61545;53.726;-0.444;2023-05-25T17:58:08;1027.9;;;14.4;100.0
73316;BME280;61545;53.726;-0.444;2023-05-25T18:03:08;1028.0;;;14.4;100.0
73316;BME280;61545;53.726;-0.444;2023-05-25T18:08:11;1028.0;;;14.4;100.0
73316;BME280;61545;53.726;-0.444;2023-05-25T18:13:08;1028.0;;;14.4;100.0
73316;BME280;61545;53.726;-0.444;2023-05-25T18:18:11;1027.9;;;14.1;100.0
73316;BME280;61545;53.726;-0.444;2023-05-25T18:23:08;1028.0;;;14.4;100.0
73316;BME280;61545;53.726;-0.444;2023-05-25T18:28:14;1028.0;;;14.3;100.0
73316;BME280;61545;53.726;-0.444;2023-05-25T18:33:11;1027.9;;;14.2;100.0
73316;BME280;61545;53.726;-0.444;2023-05-25T18:38:08;1027.9;;;14.0;100.0
73316;BME280;61545;53.726;-0.444;2023-05-25T18:43:11;1028.0;;;13.9;100.0
73316;BME280;61545;53.726;-0.444;2023-05-25T18:48:11;1028.0;;;14.0;100.0
73316;BME280;61545;53.726;-0.444;2023-05-25T18:53:08;1027.9;;;13.9;100.0
73316;BME280;61545;53.726;-0.444;2023-05-25T18:58:15;1027.9;;;14.0;100.0
73316;BME280;61545;53.726;-0.444;2023-05-25T19:03:11;1027.9;;;13.7;100.0
73316;BME280;61545;53.726;-0.444;2023-05-25T19:08:11;1027.9;;;13.9;100.0
73316;BME280;61545;53.726;-0.444;2023-05-25T19:13:08;1028.0;;;13.9;100.0
73316;BME280;61545;53.726;-0.444;2023-05-25T19:18:08;1027.9;;;13.8;100.0
73316;BME280;61545;53.726;-0.444;2023-05-25T19:23:11;1027.9;;;13.7;100.0
73316;BME280;61545;53.726;-0.444;2023-05-25T19:28:08;1027.9;;;14.0;100.0
73316;BME280;61545;53.726;-0.444;2023-05-25T19:33:13;1027.9;;;13.7;100.0
73316;BME280;61545;53.726;-0.444;2023-05-25T19:38:09;1028.0;;;13.8;100.0
73316;BME280;61545;53.726;-0.444;2023-05-25T19:43:08;1027.9;;;13.7;100.0
73316;BME280;61545;53.726;-0.444;2023-05-25T19:48:11;1028.0;;;13.8;100.0
73316;BME280;61545;53.726;-0.444;2023-05-25T19:53:11;1028.0;;;13.7;100.0
73316;BME280;61545;53.726;-0.444;2023-05-25T19:58:11;1028.0;;;13.6;100.0
73316;BME280;61545;53.726;-0.444;2023-05-25T20:08:11;1028.0;;;13.6;100.0
73316;BME280;61545;53.726;-0.444;2023-05-25T20:13:08;1028.0;;;13.6;100.0
73316;BME280;61545;53.726;-0.444;2023-05-25T20:23:11;1028.1;;;13.7;100.0
73316;BME280;61545;53.726;-0.444;2023-05-25T20:28:08;1028.1;;;13.6;100.0
73316;BME280;61545;53.726;-0.444;2023-05-25T20:33:12;1028.2;;;13.5;100.0
73316;BME280;61545;53.726;-0.444;2023-05-25T20:43:11;1028.3;;;13.7;100.0
73316;BME280;61545;53.726;-0.444;2023-05-25T20:48:08;1028.3;;;13.6;100.0
73316;BME280;61545;53.726;-0.444;2023-05-25T20:53:11;1028.3;;;13.6;100.0
73316;BME280;61545;53.726;-0.444;2023-05-25T20:58:10;1028.3;;;13.5;100.0
73316;BME280;61545;53.726;-0.444;2023-05-25T21:03:11;1028.4;;;13.5;100.0
73316;BME280;61545;53.726;-0.444;2023-05-25T21:08:11;1028.3;;;13.3;100.0
73316;BME280;61545;53.726;-0.444;2023-05-25T21:13:08;1028.3;;;13.5;100.0
73316;BME280;61545;53.726;-0.444;2023-05-25T21:18:14;1028.4;;;13.3;100.0
73316;BME280;61545;53.726;-0.444;2023-05-25T21:23:08;1028.4;;;13.4;100.0
73316;BME280;61545;53.726;-0.444;2023-05-25T21:33:08;1028.4;;;13.4;100.0
73316;BME280;61545;53.726;-0.444;2023-05-25T21:38:08;1028.5;;;13.3;100.0
73316;BME280;61545;53.726;-0.444;2023-05-25T21:43:08;1028.5;;;13.3;100.0
73316;BME280;61545;53.726;-0.444;2023-05-25T21:53:10;1028.4;;;13.4;100.0
73316;BME280;61545;53.726;-0.444;2023-05-25T21:58:08;1028.5;;;13.3;100.0
73316;BME280;61545;53.726;-0.444;2023-05-25T22:03:10;1028.5;;;13.2;100.0
73316;BME280;61545;53.726;-0.444;2023-05-25T22:08:11;1028.6;;;13.1;100.0
73316;BME280;61545;53.726;-0.444;2023-05-25T22:13:08;1028.5;;;13.2;100.0
73316;BME280;61545;53.726;-0.444;2023-05-25T22:18:13;1028.5;;;12.9;100.0
73316;BME280;61545;53.726;-0.444;2023-05-25T22:23:10;1028.4;;;13.0;100.0
73316;BME280;61545;53.726;-0.444;2023-05-25T22:28:08;1028.4;;;13.1;100.0
73316;BME280;61545;53.726;-0.444;2023-05-25T22:33:14;1028.5;;;13.2;100.0
73316;BME280;61545;53.726;-0.444;2023-05-25T22:38:08;1028.5;;;12.9;100.0
73316;BME280;61545;53.726;-0.444;2023-05-25T22:43:13;1028.4;;;13.0;100.0
73316;BME280;61545;53.726;-0.444;2023-05-25T22:58:11;1028.4;;;13.2;100.0
73316;BME280;61545;53.726;-0.444;2023-05-25T23:03:11;1028.3;;;13.0;100.0
73316;BME280;61545;53.726;-0.444;2023-05-25T23:08:13;1028.3;;;13.2;100.0
73316;BME280;61545;53.726;-0.444;2023-05-25T23:13:14;1028.3;;;13.1;100.0
73316;BME280;61545;53.726;-0.444;2023-05-25T23:18:11;1028.3;;;13.1;100.0
73316;BME280;61545;53.726;-0.444;2023-05-25T23:23:11;1028.4;;;13.2;100.0
73316;BME280;61545;53.726;-0.444;2023-05-25T23:38:11;1028.3;;;13.0;100.0
73316;BME280;61545;53.726;-0.444;2023-05-25T23:43:08;1028.3;;;13.0;100.0
73316;BME280;61545;53.726;-0.444;2023-05-25T23:48:08;1028.3;;;12.9;100.0
73316;BME280;61545;53.726;-0.444;2023-05-25T23:53:08;1028.3;;;12.8;100.0
73316;BME280;61545;53.726;-0.444;2023-05-25T23:58:11;1028.3;;;12.7;100.0
